sensor_id;sensor_type;location;lat;lon;timestamp;P1;durP1;ratioP1;P2;durP2;ratioP2
62121;SDS011;48108;47.532;19.084;2024-01-15T04:56:16;36.80;;;17.60;;
62121;SDS011;48108;47.532;19.084;2024-01-15T04:59:19;35.50;;;18.90;;
62121;SDS011;48108;47.532;19.084;2024-01-15T05:02:25;38.00;;;17.15;;
62121;SDS011;48108;47.532;19.084;2024-01-15T05:05:29;35.38;;;16.48;;
62121;SDS011;48108;47.532;19.084;2024-01-15T05:08:32;39.70;;;19.42;;
62121;SDS011;48108;47.532;19.084;2024-01-15T05:11:37;35.35;;;17.70;;
62121;SDS011;48108;47.532;19.084;2024-01-15T05:14:40;37.95;;;16.77;;
62121;SDS011;48108;47.532;19.084;2024-01-15T05:17:43;35.92;;;16.80;;
62121;SDS011;48108;47.532;19.084;2024-01-15T05:20:46;38.03;;;17.83;;
62121;SDS011;48108;47.532;19.084;2024-01-15T05:23:49;34.25;;;17.40;;
62121;SDS011;48108;47.532;19.084;2024-01-15T05:26:52;42.00;;;18.48;;
62121;SDS011;48108;47.532;19.084;2024-01-15T05:29:56;36.22;;;18.95;;
62121;SDS011;48108;47.532;19.084;2024-01-15T05:32:59;41.08;;;18.98;;
62121;SDS011;48108;47.532;19.084;2024-01-15T05:36:03;35.88;;;18.52;;
62121;SDS011;48108;47.532;19.084;2024-01-15T05:39:06;34.35;;;18.15;;
62121;SDS011;48108;47.532;19.084;2024-01-15T05:42:10;39.92;;;18.08;;
62121;SDS011;48108;47.532;19.084;2024-01-15T05:45:14;43.30;;;19.52;;
62121;SDS011;48108;47.532;19.084;2024-01-15T05:48:17;42.05;;;18.95;;
62121;SDS011;48108;47.532;19.084;2024-01-15T05:51:21;39.50;;;19.08;;
62121;SDS011;48108;47.532;19.084;2024-01-15T05:54:24;40.85;;;18.73;;
62121;SDS011;48108;47.532;19.084;2024-01-15T05:57:29;39.63;;;18.50;;
62121;SDS011;48108;47.532;19.084;2024-01-15T06:00:33;46.03;;;20.12;;
62121;SDS011;48108;47.532;19.084;2024-01-15T06:03:38;46.45;;;23.40;;
62121;SDS011;48108;47.532;19.084;2024-01-15T06:06:41;44.83;;;21.52;;
62121;SDS011;48108;47.532;19.084;2024-01-15T06:09:44;40.12;;;18.87;;
62121;SDS011;48108;47.532;19.084;2024-01-15T06:12:47;39.80;;;19.33;;
62121;SDS011;48108;47.532;19.084;2024-01-15T06:15:50;40.12;;;19.92;;
62121;SDS011;48108;47.532;19.084;2024-01-15T06:18:54;41.13;;;21.15;;
62121;SDS011;48108;47.532;19.084;2024-01-15T06:21:57;41.97;;;21.33;;
62121;SDS011;48108;47.532;19.084;2024-01-15T06:25:01;42.00;;;20.58;;
62121;SDS011;48108;47.532;19.084;2024-01-15T06:28:04;34.05;;;18.08;;
62121;SDS011;48108;47.532;19.084;2024-01-15T06:31:07;42.08;;;20.85;;
62121;SDS011;48108;47.532;19.084;2024-01-15T06:34:11;40.65;;;20.33;;
62121;SDS011;48108;47.532;19.084;2024-01-15T06:37:14;44.63;;;19.98;;
62121;SDS011;48108;47.532;19.084;2024-01-15T06:40:18;38.20;;;20.02;;
62121;SDS011;48108;47.532;19.084;2024-01-15T06:43:22;46.30;;;21.73;;
62121;SDS011;48108;47.532;19.084;2024-01-15T06:46:25;36.70;;;19.30;;
62121;SDS011;48108;47.532;19.084;2024-01-15T06:49:28;42.80;;;19.40;;
62121;SDS011;48108;47.532;19.084;2024-01-15T06:52:34;42.45;;;20.73;;
62121;SDS011;48108;47.532;19.084;2024-01-15T06:55:38;38.00;;;18.73;;
62121;SDS011;48108;47.532;19.084;2024-01-15T06:58:42;36.55;;;19.08;;
62121;SDS011;48108;47.532;19.084;2024-01-15T07:01:44;38.42;;;20.37;;
62121;SDS011;48108;47.532;19.084;2024-01-15T07:04:50;42.58;;;20.40;;
62121;SDS011;48108;47.532;19.084;2024-01-15T07:07:53;45.80;;;20.83;;
62121;SDS011;48108;47.532;19.084;2024-01-15T07:10:57;36.88;;;19.90;;
62121;SDS011;48108;47.532;19.084;2024-01-15T07:14:00;53.95;;;21.75;;
62121;SDS011;48108;47.532;19.084;2024-01-15T07:17:03;39.08;;;20.15;;
62121;SDS011;48108;47.532;19.084;2024-01-15T07:20:06;37.90;;;20.67;;
62121;SDS011;48108;47.532;19.084;2024-01-15T07:23:13;45.63;;;20.67;;
62121;SDS011;48108;47.532;19.084;2024-01-15T07:26:16;40.90;;;20.33;;
62121;SDS011;48108;47.532;19.084;2024-01-15T07:29:19;43.83;;;21.45;;
62121;SDS011;48108;47.532;19.084;2024-01-15T07:32:22;43.25;;;21.70;;
62121;SDS011;48108;47.532;19.084;2024-01-15T07:35:25;44.13;;;20.73;;
62121;SDS011;48108;47.532;19.084;2024-01-15T07:38:28;37.60;;;19.08;;
62121;SDS011;48108;47.532;19.084;2024-01-15T07:41:34;46.70;;;21.37;;
62121;SDS011;48108;47.532;19.084;2024-01-15T07:44:37;39.03;;;19.23;;
62121;SDS011;48108;47.532;19.084;2024-01-15T07:47:40;47.53;;;20.67;;
62121;SDS011;48108;47.532;19.084;2024-01-15T07:50:43;46.22;;;21.37;;
62121;SDS011;48108;47.532;19.084;2024-01-15T07:53:46;46.08;;;21.90;;
62121;SDS011;48108;47.532;19.084;2024-01-15T07:56:56;44.65;;;20.90;;
62121;SDS011;48108;47.532;19.084;2024-01-15T08:00:01;41.22;;;20.27;;
62121;SDS011;48108;47.532;19.084;2024-01-15T08:03:07;38.58;;;20.45;;
62121;SDS011;48108;47.532;19.084;2024-01-15T08:06:10;42.25;;;19.33;;
62121;SDS011;48108;47.532;19.084;2024-01-15T08:09:13;41.80;;;21.23;;
62121;SDS011;48108;47.532;19.084;2024-01-15T08:12:16;44.13;;;20.08;;
62121;SDS011;48108;47.532;19.084;2024-01-15T08:15:19;43.72;;;21.25;;
62121;SDS011;48108;47.532;19.084;2024-01-15T08:18:22;39.80;;;17.83;;
62121;SDS011;48108;47.532;19.084;2024-01-15T08:21:26;37.50;;;18.83;;
62121;SDS011;48108;47.532;19.084;2024-01-15T08:24:32;36.72;;;17.33;;
62121;SDS011;48108;47.532;19.084;2024-01-15T08:27:35;40.10;;;17.12;;
62121;SDS011;48108;47.532;19.084;2024-01-15T08:30:38;42.47;;;20.65;;
62121;SDS011;48108;47.532;19.084;2024-01-15T08:33:42;36.72;;;18.20;;
62121;SDS011;48108;47.532;19.084;2024-01-15T08:36:45;28.58;;;13.52;;
62121;SDS011;48108;47.532;19.084;2024-01-15T08:39:48;26.50;;;12.20;;
62121;SDS011;48108;47.532;19.084;2024-01-15T08:42:54;24.15;;;11.15;;
62121;SDS011;48108;47.532;19.084;2024-01-15T08:45:57;26.20;;;11.23;;
62121;SDS011;48108;47.532;19.084;2024-01-15T08:49:01;19.23;;;10.57;;
62121;SDS011;48108;47.532;19.084;2024-01-15T08:52:06;22.58;;;11.35;;
62121;SDS011;48108;47.532;19.084;2024-01-15T08:55:09;23.77;;;10.02;;
62121;SDS011;48108;47.532;19.084;2024-01-15T08:58:13;25.52;;;11.57;;
62121;SDS011;48108;47.532;19.084;2024-01-15T09:01:16;25.23;;;11.10;;
62121;SDS011;48108;47.532;19.084;2024-01-15T09:04:20;22.27;;;10.43;;
62121;SDS011;48108;47.532;19.084;2024-01-15T09:07:23;22.77;;;9.57;;
62121;SDS011;48108;47.532;19.084;2024-01-15T09:10:30;21.83;;;11.02;;
62121;SDS011;48108;47.532;19.084;2024-01-15T09:13:33;19.25;;;11.07;;
62121;SDS011;48108;47.532;19.084;2024-01-15T09:16:36;20.45;;;10.43;;
62121;SDS011;48108;47.532;19.084;2024-01-15T09:19:39;21.85;;;10.38;;
62121;SDS011;48108;47.532;19.084;2024-01-15T09:22:43;21.48;;;10.00;;
62121;SDS011;48108;47.532;19.084;2024-01-15T09:25:47;18.27;;;9.38;;
62121;SDS011;48108;47.532;19.084;2024-01-15T09:28:51;20.73;;;10.20;;
62121;SDS011;48108;47.532;19.084;2024-01-15T09:31:54;18.90;;;9.90;;
62121;SDS011;48108;47.532;19.084;2024-01-15T09:34:58;18.05;;;8.75;;
62121;SDS011;48108;47.532;19.084;2024-01-15T09:38:02;18.98;;;8.32;;
62121;SDS011;48108;47.532;19.084;2024-01-15T09:41:06;14.75;;;8.68;;
62121;SDS011;48108;47.532;19.084;2024-01-15T09:44:09;17.42;;;9.38;;
62121;SDS011;48108;47.532;19.084;2024-01-15T09:47:15;16.87;;;7.87;;
62121;SDS011;48108;47.532;19.084;2024-01-15T09:50:18;12.70;;;7.28;;
62121;SDS011;48108;47.532;19.084;2024-01-15T09:53:23;14.05;;;7.35;;
62121;SDS011;48108;47.532;19.084;2024-01-15T09:56:27;14.50;;;7.05;;
62121;SDS011;48108;47.532;19.084;2024-01-15T09:59:31;18.80;;;7.28;;
62121;SDS011;48108;47.532;19.084;2024-01-15T10:02:35;12.90;;;6.93;;
62121;SDS011;48108;47.532;19.084;2024-01-15T10:05:38;15.13;;;7.12;;
62121;SDS011;48108;47.532;19.084;2024-01-15T10:08:42;14.80;;;6.70;;
62121;SDS011;48108;47.532;19.084;2024-01-15T10:11:49;15.57;;;5.80;;
62121;SDS011;48108;47.532;19.084;2024-01-15T10:14:52;14.85;;;6.80;;
62121;SDS011;48108;47.532;19.084;2024-01-15T10:17:56;9.73;;;5.43;;
62121;SDS011;48108;47.532;19.084;2024-01-15T10:20:59;10.88;;;5.85;;
62121;SDS011;48108;47.532;19.084;2024-01-15T10:24:03;15.50;;;6.25;;
62121;SDS011;48108;47.532;19.084;2024-01-15T10:27:07;15.60;;;5.78;;
62121;SDS011;48108;47.532;19.084;2024-01-15T10:30:12;14.13;;;6.15;;
62121;SDS011;48108;47.532;19.084;2024-01-15T10:33:19;10.32;;;6.00;;
62121;SDS011;48108;47.532;19.084;2024-01-15T10:36:28;11.57;;;5.78;;
62121;SDS011;48108;47.532;19.084;2024-01-15T10:39:31;12.52;;;5.78;;
62121;SDS011;48108;47.532;19.084;2024-01-15T10:42:35;9.40;;;5.07;;
62121;SDS011;48108;47.532;19.084;2024-01-15T10:45:38;9.02;;;5.18;;
62121;SDS011;48108;47.532;19.084;2024-01-15T10:48:41;9.75;;;5.43;;
62121;SDS011;48108;47.532;19.084;2024-01-15T10:51:45;9.30;;;5.70;;
62121;SDS011;48108;47.532;19.084;2024-01-15T10:54:52;12.30;;;5.75;;
62121;SDS011;48108;47.532;19.084;2024-01-15T10:57:55;10.48;;;5.70;;
62121;SDS011;48108;47.532;19.084;2024-01-15T11:01:02;10.07;;;4.65;;
62121;SDS011;48108;47.532;19.084;2024-01-15T11:04:07;9.25;;;4.80;;
62121;SDS011;48108;47.532;19.084;2024-01-15T11:07:10;8.65;;;5.40;;
62121;SDS011;48108;47.532;19.084;2024-01-15T11:13:46;14.55;;;4.62;;
62121;SDS011;48108;47.532;19.084;2024-01-15T11:16:55;9.77;;;5.15;;
62121;SDS011;48108;47.532;19.084;2024-01-15T11:19:59;9.00;;;4.78;;
62121;SDS011;48108;47.532;19.084;2024-01-15T11:23:02;7.55;;;4.60;;
62121;SDS011;48108;47.532;19.084;2024-01-15T11:26:15;10.40;;;5.45;;
62121;SDS011;48108;47.532;19.084;2024-01-15T11:29:36;7.57;;;4.55;;
62121;SDS011;48108;47.532;19.084;2024-01-15T11:32:40;7.45;;;4.20;;
62121;SDS011;48108;47.532;19.084;2024-01-15T11:35:49;11.93;;;4.85;;
62121;SDS011;48108;47.532;19.084;2024-01-15T11:38:53;10.25;;;4.60;;
62121;SDS011;48108;47.532;19.084;2024-01-15T11:42:00;7.93;;;4.12;;
62121;SDS011;48108;47.532;19.084;2024-01-15T11:45:05;6.53;;;4.37;;
62121;SDS011;48108;47.532;19.084;2024-01-15T11:48:14;9.60;;;4.30;;
62121;SDS011;48108;47.532;19.084;2024-01-15T11:51:20;5.68;;;3.55;;
62121;SDS011;48108;47.532;19.084;2024-01-15T11:54:24;8.57;;;4.12;;
62121;SDS011;48108;47.532;19.084;2024-01-15T12:00:57;10.40;;;4.72;;
62121;SDS011;48108;47.532;19.084;2024-01-15T12:04:00;5.78;;;4.00;;
62121;SDS011;48108;47.532;19.084;2024-01-15T12:07:05;6.80;;;4.05;;
62121;SDS011;48108;47.532;19.084;2024-01-15T12:10:12;7.53;;;4.32;;
62121;SDS011;48108;47.532;19.084;2024-01-15T12:13:20;7.93;;;4.00;;
62121;SDS011;48108;47.532;19.084;2024-01-15T12:16:23;6.78;;;3.80;;
62121;SDS011;48108;47.532;19.084;2024-01-15T12:19:26;6.00;;;3.80;;
62121;SDS011;48108;47.532;19.084;2024-01-15T12:22:29;9.38;;;4.37;;
62121;SDS011;48108;47.532;19.084;2024-01-15T12:25:45;6.40;;;4.37;;
62121;SDS011;48108;47.532;19.084;2024-01-15T12:28:52;6.68;;;3.97;;
62121;SDS011;48108;47.532;19.084;2024-01-15T12:31:59;10.57;;;5.25;;
62121;SDS011;48108;47.532;19.084;2024-01-15T12:35:02;8.35;;;4.57;;
62121;SDS011;48108;47.532;19.084;2024-01-15T12:38:07;6.87;;;4.20;;
62121;SDS011;48108;47.532;19.084;2024-01-15T12:41:10;6.60;;;4.37;;
62121;SDS011;48108;47.532;19.084;2024-01-15T12:44:13;7.30;;;4.55;;
62121;SDS011;48108;47.532;19.084;2024-01-15T12:47:16;7.22;;;3.95;;
62121;SDS011;48108;47.532;19.084;2024-01-15T12:50:23;6.50;;;4.20;;
62121;SDS011;48108;47.532;19.084;2024-01-15T12:53:27;7.97;;;4.37;;
62121;SDS011;48108;47.532;19.084;2024-01-15T12:56:30;7.12;;;4.00;;
62121;SDS011;48108;47.532;19.084;2024-01-15T12:59:33;9.20;;;4.25;;
62121;SDS011;48108;47.532;19.084;2024-01-15T13:02:36;7.78;;;4.10;;
62121;SDS011;48108;47.532;19.084;2024-01-15T13:05:41;7.25;;;4.37;;
62121;SDS011;48108;47.532;19.084;2024-01-15T13:08:45;8.73;;;4.20;;
62121;SDS011;48108;47.532;19.084;2024-01-15T13:11:49;8.50;;;4.37;;
62121;SDS011;48108;47.532;19.084;2024-01-15T13:14:52;7.50;;;4.47;;
62121;SDS011;48108;47.532;19.084;2024-01-15T13:17:55;8.88;;;5.05;;
62121;SDS011;48108;47.532;19.084;2024-01-15T13:20:58;5.53;;;3.53;;
62121;SDS011;48108;47.532;19.084;2024-01-15T13:24:03;7.45;;;4.18;;
62121;SDS011;48108;47.532;19.084;2024-01-15T13:27:08;8.27;;;4.05;;
62121;SDS011;48108;47.532;19.084;2024-01-15T13:30:11;5.82;;;3.92;;
62121;SDS011;48108;47.532;19.084;2024-01-15T13:33:15;6.68;;;4.03;;
62121;SDS011;48108;47.532;19.084;2024-01-15T13:36:19;8.73;;;4.12;;
62121;SDS011;48108;47.532;19.084;2024-01-15T13:39:24;7.78;;;4.32;;
62121;SDS011;48108;47.532;19.084;2024-01-15T13:42:27;6.55;;;3.60;;
62121;SDS011;48108;47.532;19.084;2024-01-15T13:45:30;8.27;;;3.53;;
62121;SDS011;48108;47.532;19.084;2024-01-15T13:48:33;13.82;;;3.95;;
62121;SDS011;48108;47.532;19.084;2024-01-15T13:51:36;6.25;;;3.95;;
62121;SDS011;48108;47.532;19.084;2024-01-15T13:54:39;5.87;;;3.60;;
62121;SDS011;48108;47.532;19.084;2024-01-15T13:57:52;4.85;;;3.35;;
62121;SDS011;48108;47.532;19.084;2024-01-15T14:00:55;9.13;;;3.50;;
62121;SDS011;48108;47.532;19.084;2024-01-15T14:03:59;5.80;;;3.10;;
62121;SDS011;48108;47.532;19.084;2024-01-15T14:07:03;5.68;;;3.67;;
62121;SDS011;48108;47.532;19.084;2024-01-15T14:10:07;7.60;;;3.62;;
62121;SDS011;48108;47.532;19.084;2024-01-15T14:13:10;5.60;;;2.97;;
62121;SDS011;48108;47.532;19.084;2024-01-15T14:16:13;5.53;;;3.22;;
62121;SDS011;48108;47.532;19.084;2024-01-15T14:19:16;6.82;;;3.65;;
62121;SDS011;48108;47.532;19.084;2024-01-15T14:22:19;7.80;;;3.85;;
62121;SDS011;48108;47.532;19.084;2024-01-15T14:25:22;5.07;;;3.50;;
62121;SDS011;48108;47.532;19.084;2024-01-15T14:28:26;7.75;;;3.67;;
62121;SDS011;48108;47.532;19.084;2024-01-15T14:31:29;5.22;;;3.92;;
62121;SDS011;48108;47.532;19.084;2024-01-15T14:34:33;6.22;;;3.40;;
62121;SDS011;48108;47.532;19.084;2024-01-15T14:37:39;6.20;;;3.78;;
62121;SDS011;48108;47.532;19.084;2024-01-15T14:40:42;9.00;;;3.87;;
62121;SDS011;48108;47.532;19.084;2024-01-15T14:43:47;6.78;;;3.95;;
62121;SDS011;48108;47.532;19.084;2024-01-15T14:46:50;6.45;;;3.72;;
62121;SDS011;48108;47.532;19.084;2024-01-15T14:49:53;7.57;;;3.47;;
62121;SDS011;48108;47.532;19.084;2024-01-15T14:52:56;6.80;;;3.53;;
62121;SDS011;48108;47.532;19.084;2024-01-15T14:55:58;7.75;;;3.83;;
62121;SDS011;48108;47.532;19.084;2024-01-15T14:59:02;4.85;;;3.28;;
62121;SDS011;48108;47.532;19.084;2024-01-15T15:02:05;5.87;;;3.12;;
62121;SDS011;48108;47.532;19.084;2024-01-15T15:05:11;9.00;;;4.05;;
62121;SDS011;48108;47.532;19.084;2024-01-15T15:08:16;5.00;;;3.60;;
62121;SDS011;48108;47.532;19.084;2024-01-15T15:11:19;6.45;;;2.97;;
62121;SDS011;48108;47.532;19.084;2024-01-15T15:14:22;6.78;;;3.58;;
62121;SDS011;48108;47.532;19.084;2024-01-15T15:17:25;6.55;;;3.55;;
62121;SDS011;48108;47.532;19.084;2024-01-15T15:20:29;11.70;;;3.60;;
62121;SDS011;48108;47.532;19.084;2024-01-15T15:23:32;5.15;;;2.97;;
62121;SDS011;48108;47.532;19.084;2024-01-15T15:26:35;8.90;;;3.30;;
62121;SDS011;48108;47.532;19.084;2024-01-15T15:29:39;4.75;;;3.00;;
62121;SDS011;48108;47.532;19.084;2024-01-15T15:32:42;19.92;;;4.37;;
62121;SDS011;48108;47.532;19.084;2024-01-15T15:35:46;7.87;;;3.70;;
62121;SDS011;48108;47.532;19.084;2024-01-15T15:38:50;5.78;;;3.72;;
62121;SDS011;48108;47.532;19.084;2024-01-15T15:41:55;7.78;;;3.67;;
62121;SDS011;48108;47.532;19.084;2024-01-15T15:44:59;5.78;;;2.87;;
62121;SDS011;48108;47.532;19.084;2024-01-15T15:48:04;4.93;;;3.62;;
62121;SDS011;48108;47.532;19.084;2024-01-15T15:51:08;6.68;;;3.80;;
62121;SDS011;48108;47.532;19.084;2024-01-15T15:54:12;7.70;;;4.05;;
62121;SDS011;48108;47.532;19.084;2024-01-15T15:57:16;6.55;;;3.87;;
62121;SDS011;48108;47.532;19.084;2024-01-15T16:00:19;8.32;;;4.30;;
62121;SDS011;48108;47.532;19.084;2024-01-15T16:03:22;8.10;;;3.67;;
62121;SDS011;48108;47.532;19.084;2024-01-15T16:06:26;8.77;;;4.15;;
62121;SDS011;48108;47.532;19.084;2024-01-15T16:09:29;6.25;;;3.37;;
62121;SDS011;48108;47.532;19.084;2024-01-15T16:12:33;6.43;;;3.80;;
62121;SDS011;48108;47.532;19.084;2024-01-15T16:15:37;7.43;;;3.85;;
62121;SDS011;48108;47.532;19.084;2024-01-15T16:18:39;7.43;;;3.67;;
62121;SDS011;48108;47.532;19.084;2024-01-15T16:22:02;4.50;;;3.55;;
62121;SDS011;48108;47.532;19.084;2024-01-15T16:25:26;7.30;;;3.65;;
62121;SDS011;48108;47.532;19.084;2024-01-15T16:28:30;9.23;;;4.28;;
62121;SDS011;48108;47.532;19.084;2024-01-15T16:31:33;5.93;;;3.80;;
62121;SDS011;48108;47.532;19.084;2024-01-15T16:34:36;7.87;;;4.43;;
62121;SDS011;48108;47.532;19.084;2024-01-15T16:37:40;7.87;;;4.03;;
62121;SDS011;48108;47.532;19.084;2024-01-15T16:40:43;12.30;;;4.03;;
62121;SDS011;48108;47.532;19.084;2024-01-15T16:43:46;7.75;;;3.92;;
62121;SDS011;48108;47.532;19.084;2024-01-15T16:46:50;7.35;;;4.12;;
62121;SDS011;48108;47.532;19.084;2024-01-15T16:49:55;10.85;;;4.62;;
62121;SDS011;48108;47.532;19.084;2024-01-15T16:52:58;6.75;;;4.55;;
62121;SDS011;48108;47.532;19.084;2024-01-15T16:56:01;6.12;;;3.92;;
